sensor_id;sensor_type;location;lat;lon;timestamp;P1;durP1;ratioP1;P2;durP2;ratioP2
46411;SDS011;32113;42.012;24.870;2022-11-20T00:00:49;20.25;;;10.48;;
46411;SDS011;32113;42.012;24.870;2022-11-20T00:03:15;27.65;;;19.60;;
46411;SDS011;32113;42.012;24.870;2022-11-20T00:05:40;38.28;;;24.42;;
46411;SDS011;32113;42.012;24.870;2022-11-20T00:08:06;37.88;;;25.85;;
46411;SDS011;32113;42.012;24.870;2022-11-20T00:10:31;42.38;;;26.45;;
46411;SDS011;32113;42.012;24.870;2022-11-20T00:12:59;39.42;;;26.08;;
46411;SDS011;32113;42.012;24.870;2022-11-20T00:15:25;35.97;;;24.50;;
46411;SDS011;32113;42.012;24.870;2022-11-20T00:17:50;38.28;;;26.08;;
46411;SDS011;32113;42.012;24.870;2022-11-20T00:20:16;38.08;;;24.45;;
46411;SDS011;32113;42.012;24.870;2022-11-20T00:22:41;43.45;;;26.05;;
46411;SDS011;32113;42.012;24.870;2022-11-20T00:25:07;32.65;;;21.67;;
46411;SDS011;32113;42.012;24.870;2022-11-20T00:27:32;35.10;;;23.70;;
46411;SDS011;32113;42.012;24.870;2022-11-20T00:29:58;31.10;;;19.77;;
46411;SDS011;32113;42.012;24.870;2022-11-20T00:32:23;30.80;;;21.73;;
46411;SDS011;32113;42.012;24.870;2022-11-20T00:34:48;29.55;;;20.30;;
46411;SDS011;32113;42.012;24.870;2022-11-20T00:37:14;27.70;;;18.20;;
46411;SDS011;32113;42.012;24.870;2022-11-20T00:39:39;21.58;;;14.88;;
46411;SDS011;32113;42.012;24.870;2022-11-20T00:42:05;26.88;;;18.35;;
46411;SDS011;32113;42.012;24.870;2022-11-20T00:44:30;22.65;;;14.52;;
46411;SDS011;32113;42.012;24.870;2022-11-20T00:46:55;20.80;;;14.90;;
46411;SDS011;32113;42.012;24.870;2022-11-20T00:49:21;24.20;;;14.38;;
46411;SDS011;32113;42.012;24.870;2022-11-20T00:51:46;21.55;;;12.57;;
46411;SDS011;32113;42.012;24.870;2022-11-20T00:54:12;17.55;;;11.85;;
46411;SDS011;32113;42.012;24.870;2022-11-20T00:56:37;22.48;;;12.38;;
46411;SDS011;32113;42.012;24.870;2022-11-20T00:59:02;18.98;;;11.90;;
46411;SDS011;32113;42.012;24.870;2022-11-20T01:01:28;18.33;;;12.18;;
46411;SDS011;32113;42.012;24.870;2022-11-20T01:03:55;18.98;;;10.75;;
46411;SDS011;32113;42.012;24.870;2022-11-20T01:06:22;20.95;;;11.65;;
46411;SDS011;32113;42.012;24.870;2022-11-20T01:08:48;17.50;;;10.93;;
46411;SDS011;32113;42.012;24.870;2022-11-20T01:11:22;22.98;;;10.23;;
46411;SDS011;32113;42.012;24.870;2022-11-20T01:13:50;15.32;;;9.73;;
46411;SDS011;32113;42.012;24.870;2022-11-20T01:16:21;12.95;;;7.97;;
46411;SDS011;32113;42.012;24.870;2022-11-20T01:18:49;16.60;;;8.13;;
46411;SDS011;32113;42.012;24.870;2022-11-20T01:23:49;15.68;;;8.02;;
46411;SDS011;32113;42.012;24.870;2022-11-20T01:26:16;17.13;;;8.73;;
46411;SDS011;32113;42.012;24.870;2022-11-20T01:28:44;14.48;;;8.90;;
46411;SDS011;32113;42.012;24.870;2022-11-20T01:31:14;14.65;;;9.25;;
46411;SDS011;32113;42.012;24.870;2022-11-20T01:33:39;20.17;;;11.60;;
46411;SDS011;32113;42.012;24.870;2022-11-20T01:36:06;19.13;;;11.05;;
46411;SDS011;32113;42.012;24.870;2022-11-20T01:38:32;26.75;;;11.43;;
46411;SDS011;32113;42.012;24.870;2022-11-20T01:40:58;17.63;;;11.02;;
46411;SDS011;32113;42.012;24.870;2022-11-20T01:43:23;18.13;;;11.07;;
46411;SDS011;32113;42.012;24.870;2022-11-20T01:48:25;18.48;;;10.48;;
46411;SDS011;32113;42.012;24.870;2022-11-20T01:50:55;20.40;;;10.27;;
46411;SDS011;32113;42.012;24.870;2022-11-20T01:53:23;18.20;;;9.60;;
46411;SDS011;32113;42.012;24.870;2022-11-20T01:55:53;16.15;;;9.13;;
46411;SDS011;32113;42.012;24.870;2022-11-20T01:58:22;13.52;;;7.85;;
46411;SDS011;32113;42.012;24.870;2022-11-20T02:00:53;14.60;;;9.43;;
46411;SDS011;32113;42.012;24.870;2022-11-20T02:03:19;14.95;;;8.63;;
46411;SDS011;32113;42.012;24.870;2022-11-20T02:08:14;22.38;;;12.02;;
46411;SDS011;32113;42.012;24.870;2022-11-20T02:10:40;17.27;;;10.40;;
46411;SDS011;32113;42.012;24.870;2022-11-20T02:13:05;15.70;;;10.32;;
46411;SDS011;32113;42.012;24.870;2022-11-20T02:15:49;21.10;;;11.90;;
46411;SDS011;32113;42.012;24.870;2022-11-20T02:18:16;15.50;;;10.68;;
46411;SDS011;32113;42.012;24.870;2022-11-20T02:20:44;19.83;;;11.15;;
46411;SDS011;32113;42.012;24.870;2022-11-20T02:23:20;17.67;;;11.60;;
46411;SDS011;32113;42.012;24.870;2022-11-20T02:25:51;17.60;;;10.65;;
46411;SDS011;32113;42.012;24.870;2022-11-20T02:28:18;17.42;;;10.00;;
46411;SDS011;32113;42.012;24.870;2022-11-20T02:30:44;16.35;;;9.40;;
46411;SDS011;32113;42.012;24.870;2022-11-20T02:33:09;11.20;;;6.80;;
46411;SDS011;32113;42.012;24.870;2022-11-20T02:38:00;10.73;;;7.03;;
46411;SDS011;32113;42.012;24.870;2022-11-20T02:40:27;9.88;;;5.78;;
46411;SDS011;32113;42.012;24.870;2022-11-20T02:42:53;10.45;;;6.47;;
46411;SDS011;32113;42.012;24.870;2022-11-20T02:45:20;13.52;;;5.95;;
46411;SDS011;32113;42.012;24.870;2022-11-20T02:47:45;12.90;;;5.05;;
46411;SDS011;32113;42.012;24.870;2022-11-20T02:50:11;15.20;;;4.70;;
46411;SDS011;32113;42.012;24.870;2022-11-20T02:52:37;9.75;;;4.55;;
46411;SDS011;32113;42.012;24.870;2022-11-20T02:55:03;6.70;;;4.22;;
46411;SDS011;32113;42.012;24.870;2022-11-20T02:57:29;10.13;;;4.00;;
46411;SDS011;32113;42.012;24.870;2022-11-20T02:59:54;10.20;;;4.40;;
46411;SDS011;32113;42.012;24.870;2022-11-20T03:02:19;9.43;;;3.67;;
46411;SDS011;32113;42.012;24.870;2022-11-20T03:04:45;10.05;;;4.75;;
46411;SDS011;32113;42.012;24.870;2022-11-20T03:07:11;11.70;;;4.85;;
46411;SDS011;32113;42.012;24.870;2022-11-20T03:09:36;8.60;;;4.70;;
46411;SDS011;32113;42.012;24.870;2022-11-20T03:12:01;10.20;;;5.88;;
46411;SDS011;32113;42.012;24.870;2022-11-20T03:14:27;11.48;;;5.80;;
46411;SDS011;32113;42.012;24.870;2022-11-20T03:16:53;9.63;;;4.90;;
46411;SDS011;32113;42.012;24.870;2022-11-20T03:19:18;9.82;;;5.20;;
46411;SDS011;32113;42.012;24.870;2022-11-20T03:21:44;12.05;;;5.68;;
46411;SDS011;32113;42.012;24.870;2022-11-20T03:24:09;12.50;;;5.80;;
46411;SDS011;32113;42.012;24.870;2022-11-20T03:26:35;11.32;;;5.80;;
46411;SDS011;32113;42.012;24.870;2022-11-20T03:29:02;9.68;;;5.80;;
46411;SDS011;32113;42.012;24.870;2022-11-20T03:31:36;10.68;;;5.15;;
46411;SDS011;32113;42.012;24.870;2022-11-20T03:34:05;7.63;;;4.25;;
46411;SDS011;32113;42.012;24.870;2022-11-20T03:36:31;8.10;;;3.28;;
46411;SDS011;32113;42.012;24.870;2022-11-20T03:38:57;6.57;;;2.63;;
46411;SDS011;32113;42.012;24.870;2022-11-20T03:41:24;5.47;;;2.35;;
46411;SDS011;32113;42.012;24.870;2022-11-20T03:43:52;6.88;;;2.00;;
46411;SDS011;32113;42.012;24.870;2022-11-20T03:46:23;4.07;;;2.03;;
46411;SDS011;32113;42.012;24.870;2022-11-20T03:48:49;7.30;;;1.70;;
46411;SDS011;32113;42.012;24.870;2022-11-20T03:51:16;3.78;;;2.00;;
46411;SDS011;32113;42.012;24.870;2022-11-20T03:56:10;6.45;;;2.15;;
46411;SDS011;32113;42.012;24.870;2022-11-20T03:58:37;5.30;;;1.90;;
46411;SDS011;32113;42.012;24.870;2022-11-20T04:01:07;8.40;;;1.90;;
46411;SDS011;32113;42.012;24.870;2022-11-20T04:03:34;4.43;;;1.70;;
46411;SDS011;32113;42.012;24.870;2022-11-20T04:06:11;4.80;;;1.88;;
46411;SDS011;32113;42.012;24.870;2022-11-20T04:08:37;5.55;;;1.90;;
46411;SDS011;32113;42.012;24.870;2022-11-20T04:14:00;4.57;;;1.75;;
46411;SDS011;32113;42.012;24.870;2022-11-20T04:18:57;5.38;;;1.90;;
46411;SDS011;32113;42.012;24.870;2022-11-20T04:21:24;5.80;;;1.52;;
46411;SDS011;32113;42.012;24.870;2022-11-20T04:23:50;6.30;;;1.63;;
46411;SDS011;32113;42.012;24.870;2022-11-20T04:26:17;5.03;;;2.08;;
46411;SDS011;32113;42.012;24.870;2022-11-20T04:28:43;4.97;;;1.63;;
46411;SDS011;32113;42.012;24.870;2022-11-20T04:31:09;4.63;;;1.30;;
46411;SDS011;32113;42.012;24.870;2022-11-20T04:33:43;5.22;;;1.80;;
46411;SDS011;32113;42.012;24.870;2022-11-20T04:38:38;14.18;;;6.88;;
46411;SDS011;32113;42.012;24.870;2022-11-20T04:41:05;21.20;;;13.15;;
46411;SDS011;32113;42.012;24.870;2022-11-20T04:43:32;22.10;;;15.10;;
46411;SDS011;32113;42.012;24.870;2022-11-20T04:45:58;23.70;;;14.50;;
46411;SDS011;32113;42.012;24.870;2022-11-20T04:48:28;24.33;;;14.32;;
46411;SDS011;32113;42.012;24.870;2022-11-20T04:50:54;15.90;;;8.90;;
46411;SDS011;32113;42.012;24.870;2022-11-20T04:53:20;8.00;;;4.00;;
46411;SDS011;32113;42.012;24.870;2022-11-20T04:55:47;18.85;;;11.18;;
46411;SDS011;32113;42.012;24.870;2022-11-20T04:58:13;30.08;;;16.50;;
46411;SDS011;32113;42.012;24.870;2022-11-20T05:00:39;28.85;;;17.30;;
46411;SDS011;32113;42.012;24.870;2022-11-20T05:03:04;29.38;;;16.42;;
46411;SDS011;32113;42.012;24.870;2022-11-20T05:05:30;29.27;;;16.90;;
46411;SDS011;32113;42.012;24.870;2022-11-20T05:07:56;29.15;;;17.63;;
46411;SDS011;32113;42.012;24.870;2022-11-20T05:10:23;33.33;;;17.77;;
46411;SDS011;32113;42.012;24.870;2022-11-20T05:12:49;26.15;;;15.63;;
46411;SDS011;32113;42.012;24.870;2022-11-20T05:15:14;27.73;;;16.75;;
46411;SDS011;32113;42.012;24.870;2022-11-20T05:17:39;36.55;;;19.02;;
46411;SDS011;32113;42.012;24.870;2022-11-20T05:20:05;24.05;;;17.52;;
46411;SDS011;32113;42.012;24.870;2022-11-20T05:22:31;30.05;;;18.23;;
46411;SDS011;32113;42.012;24.870;2022-11-20T05:24:56;33.20;;;18.80;;
46411;SDS011;32113;42.012;24.870;2022-11-20T05:27:22;35.28;;;19.25;;
46411;SDS011;32113;42.012;24.870;2022-11-20T05:29:47;32.30;;;19.00;;
46411;SDS011;32113;42.012;24.870;2022-11-20T05:32:13;32.88;;;19.27;;
46411;SDS011;32113;42.012;24.870;2022-11-20T05:34:38;34.08;;;19.17;;
46411;SDS011;32113;42.012;24.870;2022-11-20T05:37:03;33.55;;;19.60;;
46411;SDS011;32113;42.012;24.870;2022-11-20T05:39:29;31.40;;;17.98;;
46411;SDS011;32113;42.012;24.870;2022-11-20T05:41:54;30.23;;;17.75;;
46411;SDS011;32113;42.012;24.870;2022-11-20T05:44:38;37.03;;;18.15;;
46411;SDS011;32113;42.012;24.870;2022-11-20T05:47:04;35.95;;;18.98;;
46411;SDS011;32113;42.012;24.870;2022-11-20T05:49:30;35.97;;;18.23;;
46411;SDS011;32113;42.012;24.870;2022-11-20T05:51:55;38.22;;;19.95;;
46411;SDS011;32113;42.012;24.870;2022-11-20T05:54:21;46.80;;;23.52;;
46411;SDS011;32113;42.012;24.870;2022-11-20T05:56:46;39.40;;;21.73;;
46411;SDS011;32113;42.012;24.870;2022-11-20T05:59:12;43.42;;;23.00;;
46411;SDS011;32113;42.012;24.870;2022-11-20T06:01:37;52.60;;;23.75;;
46411;SDS011;32113;42.012;24.870;2022-11-20T06:04:02;44.45;;;20.75;;
46411;SDS011;32113;42.012;24.870;2022-11-20T06:06:28;41.70;;;20.70;;
46411;SDS011;32113;42.012;24.870;2022-11-20T06:08:54;30.42;;;16.48;;
46411;SDS011;32113;42.012;24.870;2022-11-20T06:11:20;27.83;;;14.53;;
46411;SDS011;32113;42.012;24.870;2022-11-20T06:13:46;26.02;;;14.18;;
46411;SDS011;32113;42.012;24.870;2022-11-20T06:16:13;25.88;;;12.23;;
46411;SDS011;32113;42.012;24.870;2022-11-20T06:18:40;29.30;;;12.38;;
46411;SDS011;32113;42.012;24.870;2022-11-20T06:21:09;35.10;;;15.00;;
46411;SDS011;32113;42.012;24.870;2022-11-20T06:23:42;35.30;;;14.77;;
46411;SDS011;32113;42.012;24.870;2022-11-20T06:26:08;31.13;;;14.60;;
46411;SDS011;32113;42.012;24.870;2022-11-20T06:28:37;27.17;;;14.32;;
46411;SDS011;32113;42.012;24.870;2022-11-20T06:31:03;30.55;;;14.52;;
46411;SDS011;32113;42.012;24.870;2022-11-20T06:33:29;24.58;;;13.27;;
46411;SDS011;32113;42.012;24.870;2022-11-20T06:35:56;21.58;;;13.23;;
46411;SDS011;32113;42.012;24.870;2022-11-20T06:38:25;24.17;;;13.57;;
46411;SDS011;32113;42.012;24.870;2022-11-20T06:40:51;22.05;;;13.32;;
46411;SDS011;32113;42.012;24.870;2022-11-20T06:43:16;31.58;;;14.70;;
46411;SDS011;32113;42.012;24.870;2022-11-20T06:45:42;27.40;;;13.88;;
46411;SDS011;32113;42.012;24.870;2022-11-20T06:48:07;20.05;;;10.23;;
46411;SDS011;32113;42.012;24.870;2022-11-20T06:50:34;20.23;;;11.73;;
46411;SDS011;32113;42.012;24.870;2022-11-20T06:53:01;17.50;;;10.43;;
46411;SDS011;32113;42.012;24.870;2022-11-20T06:55:28;18.80;;;9.43;;
46411;SDS011;32113;42.012;24.870;2022-11-20T06:57:53;22.58;;;9.85;;
46411;SDS011;32113;42.012;24.870;2022-11-20T07:00:19;21.55;;;10.27;;
46411;SDS011;32113;42.012;24.870;2022-11-20T07:02:44;18.08;;;9.82;;
46411;SDS011;32113;42.012;24.870;2022-11-20T07:05:10;13.70;;;7.47;;
46411;SDS011;32113;42.012;24.870;2022-11-20T07:07:35;11.57;;;6.53;;
46411;SDS011;32113;42.012;24.870;2022-11-20T07:10:00;9.25;;;4.53;;
46411;SDS011;32113;42.012;24.870;2022-11-20T07:12:26;11.85;;;6.22;;
46411;SDS011;32113;42.012;24.870;2022-11-20T07:14:51;15.20;;;8.07;;
46411;SDS011;32113;42.012;24.870;2022-11-20T07:17:17;12.68;;;5.93;;
46411;SDS011;32113;42.012;24.870;2022-11-20T07:19:42;15.40;;;6.53;;
46411;SDS011;32113;42.012;24.870;2022-11-20T07:22:08;22.23;;;6.70;;
46411;SDS011;32113;42.012;24.870;2022-11-20T07:24:33;9.65;;;4.35;;
46411;SDS011;32113;42.012;24.870;2022-11-20T07:26:59;9.68;;;3.97;;
46411;SDS011;32113;42.012;24.870;2022-11-20T07:29:25;10.38;;;5.10;;
46411;SDS011;32113;42.012;24.870;2022-11-20T07:31:51;7.63;;;4.30;;
46411;SDS011;32113;42.012;24.870;2022-11-20T07:34:16;11.13;;;5.13;;
46411;SDS011;32113;42.012;24.870;2022-11-20T07:36:41;12.70;;;6.30;;
46411;SDS011;32113;42.012;24.870;2022-11-20T07:39:07;22.70;;;5.55;;
46411;SDS011;32113;42.012;24.870;2022-11-20T07:41:32;16.30;;;5.97;;
46411;SDS011;32113;42.012;24.870;2022-11-20T07:43:58;20.50;;;7.78;;
46411;SDS011;32113;42.012;24.870;2022-11-20T07:46:23;20.13;;;9.52;;
46411;SDS011;32113;42.012;24.870;2022-11-20T07:48:49;17.23;;;8.20;;
46411;SDS011;32113;42.012;24.870;2022-11-20T07:51:14;24.42;;;11.93;;
46411;SDS011;32113;42.012;24.870;2022-11-20T07:53:39;18.38;;;10.10;;
46411;SDS011;32113;42.012;24.870;2022-11-20T07:56:05;22.35;;;10.90;;
46411;SDS011;32113;42.012;24.870;2022-11-20T07:58:31;27.02;;;12.05;;
46411;SDS011;32113;42.012;24.870;2022-11-20T08:01:03;26.00;;;10.85;;
46411;SDS011;32113;42.012;24.870;2022-11-20T08:03:30;25.33;;;11.65;;
46411;SDS011;32113;42.012;24.870;2022-11-20T08:05:58;27.70;;;12.38;;
46411;SDS011;32113;42.012;24.870;2022-11-20T08:08:25;32.00;;;11.85;;
46411;SDS011;32113;42.012;24.870;2022-11-20T08:10:50;20.83;;;11.38;;
46411;SDS011;32113;42.012;24.870;2022-11-20T08:13:16;24.75;;;11.93;;
46411;SDS011;32113;42.012;24.870;2022-11-20T08:16:00;38.42;;;12.55;;
46411;SDS011;32113;42.012;24.870;2022-11-20T08:18:25;28.10;;;14.68;;
46411;SDS011;32113;42.012;24.870;2022-11-20T08:20:51;28.88;;;13.38;;
46411;SDS011;32113;42.012;24.870;2022-11-20T08:23:16;23.45;;;12.25;;
46411;SDS011;32113;42.012;24.870;2022-11-20T08:25:41;21.67;;;12.48;;
46411;SDS011;32113;42.012;24.870;2022-11-20T08:28:08;23.05;;;12.15;;
46411;SDS011;32113;42.012;24.870;2022-11-20T08:30:34;27.73;;;12.38;;
46411;SDS011;32113;42.012;24.870;2022-11-20T08:33:02;25.15;;;12.40;;
46411;SDS011;32113;42.012;24.870;2022-11-20T08:35:32;20.88;;;11.75;;
46411;SDS011;32113;42.012;24.870;2022-11-20T08:37:58;32.70;;;12.13;;
46411;SDS011;32113;42.012;24.870;2022-11-20T08:40:24;23.25;;;10.82;;
46411;SDS011;32113;42.012;24.870;2022-11-20T08:42:50;21.45;;;10.60;;
46411;SDS011;32113;42.012;24.870;2022-11-20T08:45:16;21.40;;;10.48;;
46411;SDS011;32113;42.012;24.870;2022-11-20T08:47:42;25.20;;;10.65;;
46411;SDS011;32113;42.012;24.870;2022-11-20T08:50:09;23.80;;;10.05;;
46411;SDS011;32113;42.012;24.870;2022-11-20T08:52:36;25.63;;;11.10;;
46411;SDS011;32113;42.012;24.870;2022-11-20T08:55:02;23.67;;;10.13;;
46411;SDS011;32113;42.012;24.870;2022-11-20T08:57:30;20.30;;;9.97;;
46411;SDS011;32113;42.012;24.870;2022-11-20T08:59:57;21.25;;;9.55;;
46411;SDS011;32113;42.012;24.870;2022-11-20T09:02:22;20.20;;;9.07;;
46411;SDS011;32113;42.012;24.870;2022-11-20T09:04:47;16.77;;;8.57;;
46411;SDS011;32113;42.012;24.870;2022-11-20T09:07:13;22.63;;;9.98;;
46411;SDS011;32113;42.012;24.870;2022-11-20T09:09:38;19.08;;;9.98;;
46411;SDS011;32113;42.012;24.870;2022-11-20T09:12:04;17.38;;;8.98;;
46411;SDS011;32113;42.012;24.870;2022-11-20T09:14:29;22.88;;;10.00;;
46411;SDS011;32113;42.012;24.870;2022-11-20T09:16:55;24.27;;;10.38;;
46411;SDS011;32113;42.012;24.870;2022-11-20T09:19:21;25.70;;;9.57;;
46411;SDS011;32113;42.012;24.870;2022-11-20T09:21:49;21.02;;;9.18;;
46411;SDS011;32113;42.012;24.870;2022-11-20T09:24:14;25.13;;;9.75;;
46411;SDS011;32113;42.012;24.870;2022-11-20T09:26:39;23.50;;;8.68;;
46411;SDS011;32113;42.012;24.870;2022-11-20T09:29:05;25.88;;;9.98;;
46411;SDS011;32113;42.012;24.870;2022-11-20T09:31:31;17.38;;;9.45;;
46411;SDS011;32113;42.012;24.870;2022-11-20T09:33:56;24.05;;;10.00;;
46411;SDS011;32113;42.012;24.870;2022-11-20T09:36:22;25.75;;;9.77;;
46411;SDS011;32113;42.012;24.870;2022-11-20T09:38:47;22.65;;;7.80;;
46411;SDS011;32113;42.012;24.870;2022-11-20T09:44:27;18.45;;;8.32;;
46411;SDS011;32113;42.012;24.870;2022-11-20T09:53:11;18.90;;;7.30;;
46411;SDS011;32113;42.012;24.870;2022-11-20T09:55:47;24.05;;;8.70;;
46411;SDS011;32113;42.012;24.870;2022-11-20T09:58:16;23.00;;;9.02;;
46411;SDS011;32113;42.012;24.870;2022-11-20T10:00:50;19.70;;;9.52;;
46411;SDS011;32113;42.012;24.870;2022-11-20T10:05:47;20.85;;;7.68;;
46411;SDS011;32113;42.012;24.870;2022-11-20T10:08:21;20.98;;;7.97;;
46411;SDS011;32113;42.012;24.870;2022-11-20T10:11:09;17.80;;;8.35;;
46411;SDS011;32113;42.012;24.870;2022-11-20T10:13:48;20.80;;;9.07;;
46411;SDS011;32113;42.012;24.870;2022-11-20T10:24:55;21.75;;;9.45;;
46411;SDS011;32113;42.012;24.870;2022-11-20T10:30:06;18.42;;;8.35;;
46411;SDS011;32113;42.012;24.870;2022-11-20T10:32:36;19.85;;;7.43;;
46411;SDS011;32113;42.012;24.870;2022-11-20T10:40:18;25.33;;;11.13;;
46411;SDS011;32113;42.012;24.870;2022-11-20T10:42:56;22.67;;;10.43;;
46411;SDS011;32113;42.012;24.870;2022-11-20T10:50:49;17.70;;;7.88;;
46411;SDS011;32113;42.012;24.870;2022-11-20T10:56:22;17.70;;;7.28;;
46411;SDS011;32113;42.012;24.870;2022-11-20T11:01:26;21.48;;;6.65;;
46411;SDS011;32113;42.012;24.870;2022-11-20T11:03:52;17.55;;;6.55;;
46411;SDS011;32113;42.012;24.870;2022-11-20T11:06:32;19.83;;;7.15;;
46411;SDS011;32113;42.012;24.870;2022-11-20T11:09:09;15.32;;;6.75;;
46411;SDS011;32113;42.012;24.870;2022-11-20T11:11:40;38.05;;;7.78;;
46411;SDS011;32113;42.012;24.870;2022-11-20T11:14:10;22.02;;;6.05;;
46411;SDS011;32113;42.012;24.870;2022-11-20T11:16:48;24.30;;;5.50;;
46411;SDS011;32113;42.012;24.870;2022-11-20T11:19:16;27.58;;;4.75;;
46411;SDS011;32113;42.012;24.870;2022-11-20T11:21:52;23.95;;;5.25;;
46411;SDS011;32113;42.012;24.870;2022-11-20T11:24:21;13.65;;;4.30;;
46411;SDS011;32113;42.012;24.870;2022-11-20T11:29:30;14.65;;;4.32;;
46411;SDS011;32113;42.012;24.870;2022-11-20T11:32:03;19.92;;;4.13;;
46411;SDS011;32113;42.012;24.870;2022-11-20T11:34:33;13.18;;;4.32;;
46411;SDS011;32113;42.012;24.870;2022-11-20T11:36:59;15.07;;;4.85;;
46411;SDS011;32113;42.012;24.870;2022-11-20T11:39:28;20.27;;;4.68;;
46411;SDS011;32113;42.012;24.870;2022-11-20T11:41:55;7.88;;;2.88;;
46411;SDS011;32113;42.012;24.870;2022-11-20T11:44:31;17.95;;;3.90;;
46411;SDS011;32113;42.012;24.870;2022-11-20T11:52:40;16.60;;;4.53;;
46411;SDS011;32113;42.012;24.870;2022-11-20T11:55:12;21.58;;;3.90;;
46411;SDS011;32113;42.012;24.870;2022-11-20T11:57:55;12.57;;;2.83;;
46411;SDS011;32113;42.012;24.870;2022-11-20T12:00:39;19.65;;;2.78;;
46411;SDS011;32113;42.012;24.870;2022-11-20T12:03:19;14.30;;;2.92;;
46411;SDS011;32113;42.012;24.870;2022-11-20T12:05:55;24.02;;;4.22;;
46411;SDS011;32113;42.012;24.870;2022-11-20T12:09:10;14.35;;;3.60;;
46411;SDS011;32113;42.012;24.870;2022-11-20T12:11:34;14.85;;;3.38;;
46411;SDS011;32113;42.012;24.870;2022-11-20T12:16:36;15.00;;;3.78;;
46411;SDS011;32113;42.012;24.870;2022-11-20T12:19:06;18.58;;;4.45;;
46411;SDS011;32113;42.012;24.870;2022-11-20T12:30:22;17.85;;;3.63;;
46411;SDS011;32113;42.012;24.870;2022-11-20T12:41:15;15.48;;;4.00;;
46411;SDS011;32113;42.012;24.870;2022-11-20T12:53:23;16.95;;;3.00;;
46411;SDS011;32113;42.012;24.870;2022-11-20T12:58:47;13.18;;;3.60;;
46411;SDS011;32113;42.012;24.870;2022-11-20T13:04:29;14.73;;;4.15;;
46411;SDS011;32113;42.012;24.870;2022-11-20T13:07:10;15.52;;;4.10;;
46411;SDS011;32113;42.012;24.870;2022-11-20T13:09:43;20.50;;;4.32;;
46411;SDS011;32113;42.012;24.870;2022-11-20T13:12:13;17.00;;;3.80;;
46411;SDS011;32113;42.012;24.870;2022-11-20T13:17:41;20.98;;;4.13;;
46411;SDS011;32113;42.012;24.870;2022-11-20T13:20:14;20.63;;;4.28;;
46411;SDS011;32113;42.012;24.870;2022-11-20T13:22:45;24.98;;;4.20;;
46411;SDS011;32113;42.012;24.870;2022-11-20T13:25:26;15.32;;;3.30;;
46411;SDS011;32113;42.012;24.870;2022-11-20T13:27:56;16.00;;;3.15;;
46411;SDS011;32113;42.012;24.870;2022-11-20T13:30:24;15.02;;;3.40;;
46411;SDS011;32113;42.012;24.870;2022-11-20T13:35:40;28.20;;;10.55;;
46411;SDS011;32113;42.012;24.870;2022-11-20T13:38:08;15.93;;;3.20;;
46411;SDS011;32113;42.012;24.870;2022-11-20T13:40:36;19.02;;;3.75;;
46411;SDS011;32113;42.012;24.870;2022-11-20T13:43:47;12.63;;;2.70;;
46411;SDS011;32113;42.012;24.870;2022-11-20T13:48:41;13.45;;;2.95;;
46411;SDS011;32113;42.012;24.870;2022-11-20T13:51:14;14.77;;;3.25;;
46411;SDS011;32113;42.012;24.870;2022-11-20T14:02:11;8.27;;;2.47;;
46411;SDS011;32113;42.012;24.870;2022-11-20T14:04:42;16.25;;;2.53;;
46411;SDS011;32113;42.012;24.870;2022-11-20T14:07:11;14.40;;;2.47;;
46411;SDS011;32113;42.012;24.870;2022-11-20T14:09:36;13.82;;;2.53;;
46411;SDS011;32113;42.012;24.870;2022-11-20T14:12:03;14.23;;;3.13;;
46411;SDS011;32113;42.012;24.870;2022-11-20T14:14:30;21.73;;;3.75;;
46411;SDS011;32113;42.012;24.870;2022-11-20T14:19:43;10.60;;;2.25;;
46411;SDS011;32113;42.012;24.870;2022-11-20T14:24:39;11.63;;;2.65;;
46411;SDS011;32113;42.012;24.870;2022-11-20T14:27:05;11.50;;;3.17;;
46411;SDS011;32113;42.012;24.870;2022-11-20T14:29:38;11.13;;;2.30;;
46411;SDS011;32113;42.012;24.870;2022-11-20T14:32:04;14.70;;;2.53;;
46411;SDS011;32113;42.012;24.870;2022-11-20T14:34:30;12.77;;;3.05;;
46411;SDS011;32113;42.012;24.870;2022-11-20T14:37:02;11.75;;;3.35;;
46411;SDS011;32113;42.012;24.870;2022-11-20T14:39:36;9.88;;;2.70;;
46411;SDS011;32113;42.012;24.870;2022-11-20T14:42:16;9.07;;;1.90;;
46411;SDS011;32113;42.012;24.870;2022-11-20T14:44:43;9.65;;;2.85;;
46411;SDS011;32113;42.012;24.870;2022-11-20T14:47:10;13.20;;;2.63;;
46411;SDS011;32113;42.012;24.870;2022-11-20T14:49:38;8.48;;;2.30;;
46411;SDS011;32113;42.012;24.870;2022-11-20T14:52:12;11.95;;;2.55;;
46411;SDS011;32113;42.012;24.870;2022-11-20T14:54:43;10.88;;;2.70;;
46411;SDS011;32113;42.012;24.870;2022-11-20T15:00:03;11.80;;;2.55;;
46411;SDS011;32113;42.012;24.870;2022-11-20T15:02:30;7.45;;;2.25;;
46411;SDS011;32113;42.012;24.870;2022-11-20T15:04:59;13.13;;;2.42;;
46411;SDS011;32113;42.012;24.870;2022-11-20T15:07:32;10.48;;;2.58;;
46411;SDS011;32113;42.012;24.870;2022-11-20T15:10:09;5.10;;;1.73;;
46411;SDS011;32113;42.012;24.870;2022-11-20T15:12:38;10.07;;;3.17;;
46411;SDS011;32113;42.012;24.870;2022-11-20T15:15:11;9.52;;;2.00;;
46411;SDS011;32113;42.012;24.870;2022-11-20T15:17:39;9.05;;;2.53;;
46411;SDS011;32113;42.012;24.870;2022-11-20T15:20:09;11.50;;;2.08;;
46411;SDS011;32113;42.012;24.870;2022-11-20T15:22:38;12.07;;;3.75;;
46411;SDS011;32113;42.012;24.870;2022-11-20T15:25:13;7.55;;;2.40;;
46411;SDS011;32113;42.012;24.870;2022-11-20T15:27:40;5.72;;;1.10;;
46411;SDS011;32113;42.012;24.870;2022-11-20T15:30:14;5.97;;;1.50;;
46411;SDS011;32113;42.012;24.870;2022-11-20T15:32:42;5.40;;;1.80;;
46411;SDS011;32113;42.012;24.870;2022-11-20T15:35:07;6.13;;;2.00;;
46411;SDS011;32113;42.012;24.870;2022-11-20T15:37:33;9.05;;;2.10;;
46411;SDS011;32113;42.012;24.870;2022-11-20T15:39:58;5.80;;;1.77;;
46411;SDS011;32113;42.012;24.870;2022-11-20T15:42:24;6.68;;;1.73;;
46411;SDS011;32113;42.012;24.870;2022-11-20T15:44:49;6.25;;;1.60;;
46411;SDS011;32113;42.012;24.870;2022-11-20T15:47:14;5.55;;;1.60;;
46411;SDS011;32113;42.012;24.870;2022-11-20T15:49:42;7.50;;;1.27;;
46411;SDS011;32113;42.012;24.870;2022-11-20T15:52:08;6.95;;;1.60;;
46411;SDS011;32113;42.012;24.870;2022-11-20T15:54:41;3.58;;;1.45;;
46411;SDS011;32113;42.012;24.870;2022-11-20T15:57:06;4.70;;;1.15;;
46411;SDS011;32113;42.012;24.870;2022-11-20T15:59:32;5.70;;;1.35;;
46411;SDS011;32113;42.012;24.870;2022-11-20T16:01:57;7.43;;;1.30;;
46411;SDS011;32113;42.012;24.870;2022-11-20T16:04:23;5.60;;;1.00;;
46411;SDS011;32113;42.012;24.870;2022-11-20T16:06:48;5.80;;;1.85;;
46411;SDS011;32113;42.012;24.870;2022-11-20T16:09:14;6.70;;;1.52;;
46411;SDS011;32113;42.012;24.870;2022-11-20T16:11:39;2.90;;;1.02;;
46411;SDS011;32113;42.012;24.870;2022-11-20T16:14:05;5.63;;;1.38;;
46411;SDS011;32113;42.012;24.870;2022-11-20T16:16:49;7.97;;;1.58;;
46411;SDS011;32113;42.012;24.870;2022-11-20T16:19:15;6.05;;;1.77;;
46411;SDS011;32113;42.012;24.870;2022-11-20T16:21:42;3.30;;;1.13;;
46411;SDS011;32113;42.012;24.870;2022-11-20T16:24:08;4.45;;;1.73;;
46411;SDS011;32113;42.012;24.870;2022-11-20T16:26:36;3.10;;;1.15;;
46411;SDS011;32113;42.012;24.870;2022-11-20T16:29:02;5.18;;;1.60;;
46411;SDS011;32113;42.012;24.870;2022-11-20T16:31:30;5.07;;;1.23;;